Pregled zadnjih 96 podatkov za postajo Žalec Inštitut (2079)

Čas Temperatura tal (10 cm) (°C)  Temperatura (2 m) (°C)  Sončno sevanje (W/m2)  Smer vetra (3 m) (°)  Relativna zračna vlaga (2 m) (%RH)  Padavine (mm)  Omočenost lista (1,5 m) (U)  Hitrost vetra (3 m) (km/h)  Temp. rosišča (2m) (°C)  Temp. mokrega term. (2m) (°C) 
23.1.2022 7:30 -2,3 -2,9 0 75 100 0 0 0 -2,9 -2,9
23.1.2022 7:00 -2,3 -2,3 0 224 100 0 1 1,8 -2,3 -2,3
23.1.2022 6:30 -2,3 -2,5 0 357 100 0 1 0,3 -2,5 -2,5
23.1.2022 6:00 -2,3 -2 0 163 100 0 1 0 -2 -2
23.1.2022 5:30 -2,3 -1,3 0 294 100 0 2 1,5 -1,4 -1,3
23.1.2022 5:00 -2,3 -0,9 0 273 100 0 3 2,5 -0,9 -0,9
23.1.2022 4:30 -2,3 -1,2 0 353 100 0 2 0,7 -1,2 -1,2
23.1.2022 4:00 -2,3 -1 0 147 100 0 2 0,9 -1 -1
23.1.2022 3:30 -2,3 -0,6 0 95 98 0 3 0,8 -0,9 -0,7
23.1.2022 3:00 -2,3 -0,5 0 8 98 0 4 0,7 -0,8 -0,6
23.1.2022 2:30 -2,4 -0,6 0 171 98 0 4 1,7 -0,8 -0,6
23.1.2022 2:00 -2,3 -0,5 0 244 98 0 4 1,3 -0,8 -0,6
23.1.2022 1:30 -2,4 -0,4 0 130 97 0 4 0,6 -0,9 -0,6
23.1.2022 1:00 -2,4 -0,4 0 99 97 0 4 1,2 -0,8 -0,6
23.1.2022 0:30 -2,4 -0,5 0 55 98 0 3 1,1 -0,8 -0,6
23.1.2022 0:00 -2,4 -0,2 0 350 95 0 2 0,5 -0,9 -0,5
22.1.2022 23:30 -2,4 0,7 0 67 91 0 1 1,6 -0,6 0,2
22.1.2022 23:00 -2,4 0,6 0 55 92 0 1 0,3 -0,6 0,1
22.1.2022 22:30 -2,4 0,4 0 156 93 0 0 0,2 -0,6 0
22.1.2022 22:00 -2,4 0,3 0 176 93 0 0 0,3 -0,6 -0,1
22.1.2022 21:30 -2,4 0,3 0 220 93 0 0 0,5 -0,7 -0,1
22.1.2022 21:00 -2,5 0,2 0 290 94 0 0 1,6 -0,7 -0,2
22.1.2022 20:30 -2,5 0,2 0 146 92 0 0 0,5 -1 -0,3
22.1.2022 20:00 -2,5 0 0 173 91 0 0 0,8 -1,2 -0,5
22.1.2022 19:30 -2,5 0,4 0 161 88 0 0 2 -1,3 -0,2
22.1.2022 19:00 -2,5 0,8 0 133 86 0 1 2,3 -1,3 0
22.1.2022 18:30 -2,6 1,1 0 115 84 0 0 2 -1,3 0,2
22.1.2022 18:00 -2,6 2,2 0 57 78 0 0 3,5 -1,2 0,9
22.1.2022 17:30 -2,6 2,9 0 58 76 0 0 4,7 -0,9 1,3
22.1.2022 17:00 -2,6 3,5 7 102 74 0 0 8,4 -0,8 1,8
22.1.2022 16:30 -2,6 4,5 56 75 69 0 0 9,8 -0,7 2,3
22.1.2022 16:00 -2,6 5,3 154 77 63 0 0 11,2 -1,2 2,6
22.1.2022 15:30 -2,5 6,2 123 84 58 0 0 12,6 -1,5 3
22.1.2022 15:00 -2,6 7,6 185 103 52 0 0 6,9 -1,5 3,7
22.1.2022 14:30 -2,6 7,3 128 99 53 0 0 4,6 -1,7 3,5
22.1.2022 14:00 -2,6 7,4 239 127 55 0 0 3,7 -1 3,9
22.1.2022 13:30 -2,6 7 215 96 56 0 0 4,2 -1,1 3,6
22.1.2022 13:00 -2,6 8,6 422 212 48 0 0 3,5 -1,7 4,3
22.1.2022 12:30 -2,6 7,7 507 277 53 0 0 2,2 -1,2 3,9
22.1.2022 12:00 -2,6 5,4 464 236 62 0 0 3,5 -1,2 2,7
22.1.2022 11:30 -2,6 3,6 483 120 67 0 0 4,5 -2 1,3
22.1.2022 11:00 -2,5 2,9 412 135 68 0 9 3,7 -2,4 0,8
22.1.2022 10:30 -2,5 1,5 373 176 70 0 10 2,5 -3,3 -0,3
22.1.2022 10:00 -2,5 -1 323 239 79 0 4 3,3 -4,2 -2,2
22.1.2022 9:30 -2,5 -2,9 221 293 86 0 1 2,7 -5 -3,6
22.1.2022 9:00 -2,5 -4,4 101 157 91 0 1 2,4 -5,7 -4,9
22.1.2022 8:30 -2,5 -5,8 50 285 95 0 0 2,5 -6,4 -6
22.1.2022 8:00 -2,5 -6,3 5 272 96 0 0 2,7 -6,7 -6,4
22.1.2022 7:30 -2,5 -6,2 0 144 96 0 0 2,5 -6,7 -6,3
22.1.2022 7:00 -2,5 -6,3 0 35 97 0 0 2,4 -6,7 -6,4
22.1.2022 6:30 -2,4 -6 0 6 97 0 0 1,5 -6,4 -6,1
22.1.2022 6:00 -2,4 -5,9 0 114 97 0 0 1,4 -6,3 -6
22.1.2022 5:30 -2,4 -5,6 0 38 95 0 0 1,6 -6,3 -5,8
22.1.2022 5:00 -2,4 -5,4 0 9 97 0 0 2,2 -5,8 -5,5
22.1.2022 4:30 -2,4 -5,3 0 92 95 0 0 2,2 -5,9 -5,5
22.1.2022 4:00 -2,3 -5,1 0 62 95 0 0 1,6 -5,7 -5,3
22.1.2022 3:30 -2,3 -5,1 0 111 95 0 0 0,7 -5,8 -5,3
22.1.2022 3:00 -2,3 -4,7 0 150 94 0 0 2,4 -5,5 -4,9
22.1.2022 2:30 -2,3 -4,2 0 170 92 0 1 1,9 -5,3 -4,6
22.1.2022 2:00 -2,3 -4,1 0 92 93 0 1 2,6 -5,1 -4,4
22.1.2022 1:30 -2,3 -3,5 0 189 91 0 1 2,6 -4,8 -4
22.1.2022 1:00 -2,2 -2,9 0 271 89 0 1 2,6 -4,4 -3,4
22.1.2022 0:30 -2,2 -3,6 0 301 93 0 1 2,3 -4,5 -3,9
22.1.2022 0:00 -2,2 -3,4 0 52 91 0 1 1,6 -4,6 -3,8
21.1.2022 23:30 -2,2 -3,2 0 91 92 0 1 3,1 -4,3 -3,6
21.1.2022 23:00 -2,2 -3,1 0 128 92 0 1 2,8 -4,2 -3,5
21.1.2022 22:30 -2,2 -2,4 0 78 90 0 1 2,1 -3,9 -2,9
21.1.2022 22:00 -2,2 -2,1 0 68 89 0 1 2 -3,6 -2,6
21.1.2022 21:30 -2,2 -2,1 0 108 90 0 1 0,9 -3,6 -2,6
21.1.2022 21:00 -2,2 -1,9 0 202 90 0 1 0,5 -3,3 -2,4
21.1.2022 20:30 -2,2 -1,8 0 233 88 0 2 1,1 -3,5 -2,4
21.1.2022 20:00 -2,2 -1,6 0 263 85 0 3 2 -3,8 -2,3
21.1.2022 19:30 -2,2 -2 0 264 87 0 2 1,8 -3,8 -2,6
21.1.2022 19:00 -2,2 -1,6 0 239 84 0 2 2,3 -3,9 -2,4
21.1.2022 18:30 -2,2 -1,1 0 161 82 0 2 2,8 -3,8 -2,1
21.1.2022 18:00 -2,3 -1 0 257 82 0 3 1,2 -3,6 -1,9
21.1.2022 17:30 -2,3 0,3 0 114 75 0 0 1,7 -3,6 -1,1
21.1.2022 17:00 -2,3 1,6 4 54 67 0 0 2,6 -3,9 -0,4
21.1.2022 16:30 -2,3 2,7 20 72 61 0 0 3,9 -4 0,2
21.1.2022 16:00 -2,3 3,7 113 94 57 0 0 5,1 -4 0,8
21.1.2022 15:30 -2,3 4,3 196 89 54 0 0 4,9 -4,1 1,1
21.1.2022 15:00 -2,3 4,5 269 100 56 0 0 4,2 -3,5 1,4
21.1.2022 14:30 -2,3 4,1 326 168 60 0 0 5,8 -3 1,3
21.1.2022 14:00 -2,4 3,9 381 115 63 0 0 5,6 -2,5 1,3
21.1.2022 13:30 -2,4 3,5 442 52 66 0 0 7,4 -2,2 1,2
21.1.2022 13:00 -2,4 3,4 444 74 68 0 0 6,9 -1,9 1,3
21.1.2022 12:30 -2,4 3,3 455 108 69 0 0 4,2 -1,8 1,3
21.1.2022 12:00 -2,4 2,8 450 93 71 0 0 3,6 -1,9 0,9
21.1.2022 11:30 -2,4 2,1 434 301 74 0 0 3,4 -2 0,5
21.1.2022 11:00 -2,4 1,5 400 47 79 0 3 4,2 -1,8 0,2
21.1.2022 10:30 -2,4 0,8 362 38 84 0 10 4,9 -1,6 -0,1
21.1.2022 10:00 -2,4 -0,3 218 75 89 0 10 6,2 -1,9 -0,9
21.1.2022 9:30 -2,3 -0,5 126 77 87 0 9 6,7 -2,4 -1,2
21.1.2022 9:00 -2,3 -0,9 62 78 90 0 4 6,3 -2,3 -1,4
21.1.2022 8:30 -2,3 -1,8 30 141 98 0 3 5,2 -2,1 -1,9
21.1.2022 8:00 -2,4 -3,1 5 93 100 0 1 4,1 -3,1 -3,1